1996 JACOB (1996026S14143)


On this page: IBTrACS data - Map and Plots - Positions - Intensities - Original source data

Summary

Start Jan 25
End Feb 8
Basins SI
SP
LMI 90 kt
Sources jtwc_sh
bom
neumann
In WMO? Yes
Previous storm 1996 ISOBEL (SI)
Previous in basin 1996 CELESTE (SP)
Concurrent storms 1996 CELESTE (SP)
1996 ISOBEL (SI)
1996 JACOB (SP)
1996 MISSING (WP)
1996 HSK1296 (SI)
Next in basin 1996 DENNIS (SP)
Next storm 1996 MISSING (WP)

top of page IBTrACS Data: File Access

top of page HURSAT Data: File Access

Image of storm

top of page Plots:

Map of storm track will not appear if FTP is down
Time series of cyclone Maximum Sustained Wind will not appear if FTP is down
Time series of cyclone Minimum Central Pressure will not appear if FTP is down

top of page Track Data:Position

jtwc_sh bom neumann
Date Lat Lon Lat Lon Lat Lon
1996-01-25 12:00:00 -14.0 142.7 -14.0 142.7
1996-01-25 18:00:00 -14.0 142.4 -14.0 142.4
1996-01-26 00:00:00 -14.0 142.0 -14.0 142.0
1996-01-26 06:00:00 -14.0 141.3 -14.0 141.3
1996-01-26 12:00:00 -14.0 140.9 -14.0 140.9
1996-01-26 18:00:00 -14.0 140.5 -14.0 140.5
1996-01-27 00:00:00 -14.0 140.2 -14.0 140.2
1996-01-27 06:00:00 -14.2 139.7 -14.2 139.7
1996-01-27 12:00:00 -14.7 139.0 -14.7 139.0
1996-01-27 18:00:00 -15.0 138.3 -15.1 138.3 -15.0 138.3
1996-01-28 00:00:00 -15.3 137.7 -15.4 137.7 -15.3 137.7
1996-01-28 06:00:00 -15.6 137.1 -15.6 137.0 -15.6 137.1
1996-01-28 12:00:00 -15.9 136.6 -15.7 136.4 -15.9 136.6
1996-01-28 18:00:00 -16.4 135.8 -15.7 136.3 -16.4 135.8
1996-01-29 00:00:00 -16.6 135.0 -16.6 135.0 -16.6 135.0
1996-01-29 06:00:00 -16.7 133.9 -16.7 133.9 -16.7 133.9
1996-01-29 12:00:00 -16.8 133.3 -16.8 133.3 -16.8 133.3
1996-01-29 18:00:00 -16.9 132.7 -16.9 132.7 -16.9 132.7
1996-01-30 00:00:00 -17.0 131.8 -17.0 131.8 -17.0 131.8
1996-01-30 06:00:00 -16.9 131.1 -16.9 131.1 -16.9 131.1
1996-01-30 12:00:00 -16.7 130.4 -16.7 130.4 -16.7 130.4
1996-01-30 18:00:00 -16.4 130.1 -16.4 130.1 -16.4 130.1
1996-01-31 00:00:00 -16.2 129.9 -16.2 129.9 -16.2 129.9
1996-01-31 06:00:00 -16.0 129.5 -16.0 129.5 -16.0 129.5
1996-01-31 12:00:00 -15.7 129.1 -15.7 129.1 -15.7 129.1
jtwc_sh bom neumann
1996-01-31 18:00:00 -15.3 128.5 -15.3 128.5 -15.3 128.5
1996-02-01 00:00:00 -14.8 128.0 -14.8 128.0 -14.8 128.0
1996-02-01 06:00:00 -14.4 127.4 -14.4 127.4 -14.4 127.4
1996-02-01 12:00:00 -14.1 126.5 -13.8 126.4 -14.1 126.5
1996-02-01 18:00:00 -14.2 125.3 -14.0 125.1 -14.2 125.3
1996-02-02 00:00:00 -14.7 124.2 -14.7 124.4 -14.7 124.2
1996-02-02 06:00:00 -15.4 123.2 -15.3 123.1 -15.4 123.2
1996-02-02 12:00:00 -16.1 122.2 -15.8 122.2 -16.1 122.2
1996-02-02 18:00:00 -16.7 121.0 -16.2 121.0 -16.7 121.0
1996-02-03 00:00:00 -17.0 119.9 -16.8 119.9 -17.0 119.9
1996-02-03 06:00:00 -17.3 118.8 -17.2 119.0 -17.3 118.8
1996-02-03 12:00:00 -17.6 117.9 -17.6 118.4 -17.6 117.9
1996-02-03 18:00:00 -17.9 117.3 -17.9 117.6 -17.9 117.3
1996-02-04 00:00:00 -18.3 116.7 -18.3 116.9 -18.3 116.7
1996-02-04 06:00:00 -18.7 116.1 -18.9 116.1 -18.7 116.1
1996-02-04 12:00:00 -19.2 115.4 -19.5 115.2 -19.2 115.4
1996-02-04 18:00:00 -19.9 114.4 -20.0 114.2 -19.9 114.4
1996-02-05 00:00:00 -20.9 113.3 -20.7 113.2 -20.9 113.3
1996-02-05 06:00:00 -21.9 112.1 -21.6 112.0 -21.9 112.1
1996-02-05 12:00:00 -22.5 111.2 -22.1 111.1 -22.5 111.2
1996-02-05 18:00:00 -22.8 110.4 -22.5 110.4 -22.8 110.4
1996-02-06 00:00:00 -23.0 109.8 -22.7 109.8 -23.0 109.8
1996-02-06 06:00:00 -23.2 109.5 -22.9 109.6 -23.2 109.5
1996-02-06 12:00:00 -23.5 109.3 -23.5 109.6 -23.5 109.3
jtwc_sh bom neumann
1996-02-06 18:00:00 -24.0 109.0 -23.9 109.0 -24.0 109.0
1996-02-07 00:00:00 -24.3 108.5 -24.0 108.4 -24.3 108.5
1996-02-07 06:00:00 -24.4 107.9 -24.0 107.9 -24.4 107.9
1996-02-07 12:00:00 -24.6 107.2 -24.2 107.5 -24.6 107.2
1996-02-07 18:00:00 -24.8 106.8 -24.4 107.1 -24.8 106.8
1996-02-08 00:00:00 -25.0 106.5 -24.7 106.7 -25.0 106.5
1996-02-08 06:00:00 -25.4 105.9 -25.4 105.8 -25.4 105.9
1996-02-08 12:00:00 -25.7 105.4 -25.7 105.4

top of pageTrack Data:Intensity

jtwc_sh bom neumann
Date Wind Pres Wind Pres Wind Pres
1996-01-25 12:00:00 15. 15.
1996-01-25 18:00:00 15. 15.
1996-01-26 00:00:00 15. 15.
1996-01-26 06:00:00 20. 20.
1996-01-26 12:00:00 20. 20.
1996-01-26 18:00:00 20. 20.
1996-01-27 00:00:00 20. 20.
1996-01-27 06:00:00 20. 20.
1996-01-27 12:00:00 25. 25.
1996-01-27 18:00:00 30. 35. 997. 30.
1996-01-28 00:00:00 40. 40. 992. 40.
1996-01-28 06:00:00 50. 45. 986. 50.
1996-01-28 12:00:00 50. 40. 992. 50.
1996-01-28 18:00:00 40. 35. 994. 40.
1996-01-29 00:00:00 35. 35.
1996-01-29 06:00:00 30. 30.
1996-01-29 12:00:00 30. 30.
1996-01-29 18:00:00 30. 30.
1996-01-30 00:00:00 30. 30.
1996-01-30 06:00:00 25. 25.
1996-01-30 12:00:00 25. 25.
1996-01-30 18:00:00 25. 25.
1996-01-31 00:00:00 25. 25.
1996-01-31 06:00:00 25. 25.
1996-01-31 12:00:00 25. 25.
jtwc_sh bom neumann
1996-01-31 18:00:00 25. 25.
1996-02-01 00:00:00 25. 25.
1996-02-01 06:00:00 25. 25.
1996-02-01 12:00:00 30. 33. 996. 30.
1996-02-01 18:00:00 30. 35. 994. 30.
1996-02-02 00:00:00 35. 39. 992. 35.
1996-02-02 06:00:00 40. 47. 985. 40.
1996-02-02 12:00:00 45. 60. 975. 45.
1996-02-02 18:00:00 45. 66. 970. 45.
1996-02-03 00:00:00 55. 70. 965. 55.
1996-02-03 06:00:00 65. 70. 965. 65.
1996-02-03 12:00:00 75. 70. 965. 75.
1996-02-03 18:00:00 90. 70. 965. 90.
1996-02-04 00:00:00 90. 76. 960. 90.
1996-02-04 06:00:00 90. 76. 960. 90.
1996-02-04 12:00:00 90. 76. 960. 90.
1996-02-04 18:00:00 90. 76. 960. 90.
1996-02-05 00:00:00 90. 80. 955. 90.
1996-02-05 06:00:00 90. 80. 955. 90.
1996-02-05 12:00:00 90. 80. 955. 90.
1996-02-05 18:00:00 85. 70. 965. 85.
1996-02-06 00:00:00 80. 54. 980. 80.
1996-02-06 06:00:00 60. 47. 985. 60.
1996-02-06 12:00:00 50. 41. 990. 50.
jtwc_sh bom neumann
1996-02-06 18:00:00 45. 35. 995. 45.
1996-02-07 00:00:00 35. 35. 995. 35.
1996-02-07 06:00:00 30. 29. 998. 30.
1996-02-07 12:00:00 25. 23. 1002. 25.
1996-02-07 18:00:00 25. 1006. 25.
1996-02-08 00:00:00 25. 1008. 25.
1996-02-08 06:00:00 20. 1008. 20.
1996-02-08 12:00:00 20. 20.

top of page Links to source data

Source Source file Format
jtwc_sh bsh101996.txt ATCF
bom Newcyclonedatabase-08repair.csv:Line=17666:JACOB CSV file (from Excel file)
neumann tracks.sh:Storm=1046:JACOB:BSH101996:JTWC&BM841BM848 HURDAT